sensor_id;sensor_type;location;lat;lon;timestamp;P1;durP1;ratioP1;P2;durP2;ratioP2
19163;SDS011;9714;51.208;4.242;2022-08-19T00:01:21;39.00;;;30.77;;
19163;SDS011;9714;51.208;4.242;2022-08-19T00:03:48;42.47;;;33.10;;
19163;SDS011;9714;51.208;4.242;2022-08-19T00:06:15;42.27;;;33.10;;
19163;SDS011;9714;51.208;4.242;2022-08-19T00:08:42;43.00;;;32.93;;
19163;SDS011;9714;51.208;4.242;2022-08-19T00:11:12;43.37;;;32.33;;
19163;SDS011;9714;51.208;4.242;2022-08-19T00:13:39;44.23;;;32.37;;
19163;SDS011;9714;51.208;4.242;2022-08-19T00:16:06;42.37;;;31.90;;
19163;SDS011;9714;51.208;4.242;2022-08-19T00:18:33;38.83;;;31.43;;
19163;SDS011;9714;51.208;4.242;2022-08-19T00:21:00;45.47;;;33.10;;
19163;SDS011;9714;51.208;4.242;2022-08-19T00:23:28;45.37;;;34.10;;
19163;SDS011;9714;51.208;4.242;2022-08-19T00:25:55;43.97;;;32.80;;
19163;SDS011;9714;51.208;4.242;2022-08-19T00:28:23;48.70;;;34.10;;
19163;SDS011;9714;51.208;4.242;2022-08-19T00:30:50;45.50;;;33.70;;
19163;SDS011;9714;51.208;4.242;2022-08-19T00:33:18;43.17;;;32.63;;
19163;SDS011;9714;51.208;4.242;2022-08-19T00:35:45;47.50;;;34.43;;
19163;SDS011;9714;51.208;4.242;2022-08-19T00:38:12;46.07;;;35.07;;
19163;SDS011;9714;51.208;4.242;2022-08-19T00:40:39;47.83;;;33.80;;
19163;SDS011;9714;51.208;4.242;2022-08-19T00:43:12;47.23;;;32.67;;
19163;SDS011;9714;51.208;4.242;2022-08-19T00:45:40;47.47;;;35.27;;
19163;SDS011;9714;51.208;4.242;2022-08-19T00:48:08;43.47;;;32.07;;
19163;SDS011;9714;51.208;4.242;2022-08-19T00:50:36;42.73;;;32.77;;
19163;SDS011;9714;51.208;4.242;2022-08-19T00:53:05;42.70;;;33.60;;
19163;SDS011;9714;51.208;4.242;2022-08-19T00:55:33;44.93;;;33.57;;
19163;SDS011;9714;51.208;4.242;2022-08-19T00:58:01;43.50;;;32.80;;
19163;SDS011;9714;51.208;4.242;2022-08-19T01:00:32;48.33;;;34.97;;
19163;SDS011;9714;51.208;4.242;2022-08-19T01:03:03;47.77;;;33.80;;
19163;SDS011;9714;51.208;4.242;2022-08-19T01:05:32;46.83;;;35.53;;
19163;SDS011;9714;51.208;4.242;2022-08-19T01:08:00;48.77;;;35.77;;
19163;SDS011;9714;51.208;4.242;2022-08-19T01:10:29;47.60;;;35.97;;
19163;SDS011;9714;51.208;4.242;2022-08-19T01:13:00;50.57;;;37.13;;
19163;SDS011;9714;51.208;4.242;2022-08-19T01:15:31;50.23;;;35.53;;
19163;SDS011;9714;51.208;4.242;2022-08-19T01:18:00;49.13;;;37.30;;
19163;SDS011;9714;51.208;4.242;2022-08-19T01:20:31;55.63;;;39.33;;
19163;SDS011;9714;51.208;4.242;2022-08-19T01:23:01;58.17;;;39.17;;
19163;SDS011;9714;51.208;4.242;2022-08-19T01:25:29;55.40;;;38.60;;
19163;SDS011;9714;51.208;4.242;2022-08-19T01:28:01;50.80;;;38.47;;
19163;SDS011;9714;51.208;4.242;2022-08-19T01:30:30;51.77;;;38.20;;
19163;SDS011;9714;51.208;4.242;2022-08-19T01:32:59;52.17;;;38.10;;
19163;SDS011;9714;51.208;4.242;2022-08-19T01:35:28;48.23;;;35.53;;
19163;SDS011;9714;51.208;4.242;2022-08-19T01:37:58;55.07;;;36.90;;
19163;SDS011;9714;51.208;4.242;2022-08-19T01:40:33;52.80;;;36.90;;
19163;SDS011;9714;51.208;4.242;2022-08-19T01:43:03;49.50;;;34.23;;
19163;SDS011;9714;51.208;4.242;2022-08-19T01:45:31;46.13;;;33.40;;
19163;SDS011;9714;51.208;4.242;2022-08-19T01:48:00;47.03;;;32.07;;
19163;SDS011;9714;51.208;4.242;2022-08-19T01:50:28;44.90;;;30.97;;
19163;SDS011;9714;51.208;4.242;2022-08-19T01:52:56;46.97;;;30.83;;
19163;SDS011;9714;51.208;4.242;2022-08-19T01:55:26;45.50;;;30.93;;
19163;SDS011;9714;51.208;4.242;2022-08-19T01:57:54;44.50;;;30.03;;
19163;SDS011;9714;51.208;4.242;2022-08-19T02:00:24;48.37;;;31.73;;
19163;SDS011;9714;51.208;4.242;2022-08-19T02:02:54;49.07;;;30.93;;
19163;SDS011;9714;51.208;4.242;2022-08-19T02:05:21;45.40;;;31.00;;
19163;SDS011;9714;51.208;4.242;2022-08-19T02:07:48;47.30;;;31.50;;
19163;SDS011;9714;51.208;4.242;2022-08-19T02:10:17;42.80;;;28.53;;
19163;SDS011;9714;51.208;4.242;2022-08-19T02:12:47;46.47;;;31.17;;
19163;SDS011;9714;51.208;4.242;2022-08-19T02:15:15;42.10;;;29.13;;
19163;SDS011;9714;51.208;4.242;2022-08-19T02:17:44;47.23;;;30.40;;
19163;SDS011;9714;51.208;4.242;2022-08-19T02:20:11;49.63;;;30.20;;
19163;SDS011;9714;51.208;4.242;2022-08-19T02:22:39;47.63;;;30.50;;
19163;SDS011;9714;51.208;4.242;2022-08-19T02:25:08;49.30;;;32.23;;
19163;SDS011;9714;51.208;4.242;2022-08-19T02:27:35;44.00;;;29.17;;
19163;SDS011;9714;51.208;4.242;2022-08-19T02:30:04;45.20;;;30.20;;
19163;SDS011;9714;51.208;4.242;2022-08-19T02:32:31;44.40;;;30.50;;
19163;SDS011;9714;51.208;4.242;2022-08-19T02:35:00;48.77;;;30.10;;
19163;SDS011;9714;51.208;4.242;2022-08-19T02:37:29;48.50;;;31.60;;
19163;SDS011;9714;51.208;4.242;2022-08-19T02:40:14;47.33;;;31.07;;
19163;SDS011;9714;51.208;4.242;2022-08-19T02:42:44;47.73;;;31.60;;
19163;SDS011;9714;51.208;4.242;2022-08-19T02:45:15;47.87;;;31.77;;
19163;SDS011;9714;51.208;4.242;2022-08-19T02:47:42;50.23;;;32.43;;
19163;SDS011;9714;51.208;4.242;2022-08-19T02:50:09;47.33;;;31.70;;
19163;SDS011;9714;51.208;4.242;2022-08-19T02:52:36;46.20;;;32.80;;
19163;SDS011;9714;51.208;4.242;2022-08-19T02:55:04;54.20;;;32.77;;
19163;SDS011;9714;51.208;4.242;2022-08-19T02:57:32;55.77;;;33.23;;
19163;SDS011;9714;51.208;4.242;2022-08-19T02:59:59;51.23;;;32.53;;
19163;SDS011;9714;51.208;4.242;2022-08-19T03:02:28;47.07;;;32.93;;
19163;SDS011;9714;51.208;4.242;2022-08-19T03:04:55;51.57;;;32.20;;
19163;SDS011;9714;51.208;4.242;2022-08-19T03:07:22;55.80;;;32.93;;
19163;SDS011;9714;51.208;4.242;2022-08-19T03:09:49;55.50;;;32.40;;
19163;SDS011;9714;51.208;4.242;2022-08-19T03:12:16;47.63;;;33.10;;
19163;SDS011;9714;51.208;4.242;2022-08-19T03:14:43;50.00;;;32.63;;
19163;SDS011;9714;51.208;4.242;2022-08-19T03:17:11;49.77;;;31.70;;
19163;SDS011;9714;51.208;4.242;2022-08-19T03:19:40;46.93;;;29.77;;
19163;SDS011;9714;51.208;4.242;2022-08-19T03:22:08;51.20;;;31.70;;
19163;SDS011;9714;51.208;4.242;2022-08-19T03:24:35;54.20;;;32.53;;
19163;SDS011;9714;51.208;4.242;2022-08-19T03:27:03;48.70;;;29.70;;
19163;SDS011;9714;51.208;4.242;2022-08-19T03:29:31;48.10;;;30.07;;
19163;SDS011;9714;51.208;4.242;2022-08-19T03:31:59;44.47;;;29.70;;
19163;SDS011;9714;51.208;4.242;2022-08-19T03:34:28;49.27;;;30.30;;
19163;SDS011;9714;51.208;4.242;2022-08-19T03:36:58;55.37;;;31.40;;
19163;SDS011;9714;51.208;4.242;2022-08-19T03:39:29;46.80;;;29.00;;
19163;SDS011;9714;51.208;4.242;2022-08-19T03:41:56;52.80;;;29.20;;
19163;SDS011;9714;51.208;4.242;2022-08-19T03:44:28;50.70;;;28.60;;
19163;SDS011;9714;51.208;4.242;2022-08-19T03:46:57;42.50;;;27.33;;
19163;SDS011;9714;51.208;4.242;2022-08-19T03:49:26;44.73;;;27.90;;
19163;SDS011;9714;51.208;4.242;2022-08-19T03:51:55;43.27;;;26.30;;
19163;SDS011;9714;51.208;4.242;2022-08-19T03:54:25;48.57;;;26.10;;
19163;SDS011;9714;51.208;4.242;2022-08-19T03:56:59;43.97;;;26.30;;
19163;SDS011;9714;51.208;4.242;2022-08-19T03:59:28;48.40;;;26.87;;
19163;SDS011;9714;51.208;4.242;2022-08-19T04:01:58;48.77;;;26.47;;
19163;SDS011;9714;51.208;4.242;2022-08-19T04:04:27;45.10;;;27.07;;
19163;SDS011;9714;51.208;4.242;2022-08-19T04:06:54;45.30;;;27.00;;
19163;SDS011;9714;51.208;4.242;2022-08-19T04:09:23;48.63;;;27.13;;
19163;SDS011;9714;51.208;4.242;2022-08-19T04:11:51;49.53;;;26.63;;
19163;SDS011;9714;51.208;4.242;2022-08-19T04:14:21;40.57;;;24.83;;
19163;SDS011;9714;51.208;4.242;2022-08-19T04:16:49;41.60;;;24.73;;
19163;SDS011;9714;51.208;4.242;2022-08-19T04:19:18;47.23;;;25.97;;
19163;SDS011;9714;51.208;4.242;2022-08-19T04:21:47;44.70;;;24.67;;
19163;SDS011;9714;51.208;4.242;2022-08-19T04:24:17;42.10;;;23.90;;
19163;SDS011;9714;51.208;4.242;2022-08-19T04:26:46;38.60;;;23.27;;
19163;SDS011;9714;51.208;4.242;2022-08-19T04:29:15;42.00;;;22.97;;
19163;SDS011;9714;51.208;4.242;2022-08-19T04:31:44;42.13;;;24.73;;
19163;SDS011;9714;51.208;4.242;2022-08-19T04:34:13;45.63;;;22.90;;
19163;SDS011;9714;51.208;4.242;2022-08-19T04:36:42;44.07;;;23.40;;
19163;SDS011;9714;51.208;4.242;2022-08-19T04:39:12;45.73;;;24.40;;
19163;SDS011;9714;51.208;4.242;2022-08-19T04:41:41;44.40;;;23.40;;
19163;SDS011;9714;51.208;4.242;2022-08-19T04:44:27;43.63;;;22.20;;
19163;SDS011;9714;51.208;4.242;2022-08-19T04:46:55;40.13;;;23.00;;
19163;SDS011;9714;51.208;4.242;2022-08-19T04:49:24;40.97;;;22.63;;
19163;SDS011;9714;51.208;4.242;2022-08-19T04:51:52;47.03;;;23.63;;
19163;SDS011;9714;51.208;4.242;2022-08-19T04:54:20;45.53;;;21.17;;
19163;SDS011;9714;51.208;4.242;2022-08-19T04:56:48;40.47;;;21.00;;
19163;SDS011;9714;51.208;4.242;2022-08-19T04:59:17;37.77;;;20.87;;
19163;SDS011;9714;51.208;4.242;2022-08-19T05:01:46;40.47;;;20.67;;
19163;SDS011;9714;51.208;4.242;2022-08-19T05:04:15;35.40;;;20.07;;
19163;SDS011;9714;51.208;4.242;2022-08-19T05:06:45;38.87;;;21.10;;
19163;SDS011;9714;51.208;4.242;2022-08-19T05:09:13;37.80;;;20.80;;
19163;SDS011;9714;51.208;4.242;2022-08-19T05:11:40;39.10;;;18.90;;
19163;SDS011;9714;51.208;4.242;2022-08-19T05:14:09;37.87;;;19.47;;
19163;SDS011;9714;51.208;4.242;2022-08-19T05:16:37;37.53;;;20.27;;
19163;SDS011;9714;51.208;4.242;2022-08-19T05:19:06;31.57;;;19.70;;
19163;SDS011;9714;51.208;4.242;2022-08-19T05:21:52;35.90;;;19.47;;
19163;SDS011;9714;51.208;4.242;2022-08-19T05:24:37;36.20;;;19.70;;
19163;SDS011;9714;51.208;4.242;2022-08-19T05:27:05;32.23;;;17.87;;
19163;SDS011;9714;51.208;4.242;2022-08-19T05:29:33;34.50;;;18.60;;
19163;SDS011;9714;51.208;4.242;2022-08-19T05:32:06;41.57;;;19.23;;
19163;SDS011;9714;51.208;4.242;2022-08-19T05:34:36;36.90;;;16.87;;
19163;SDS011;9714;51.208;4.242;2022-08-19T05:37:04;34.50;;;16.90;;
19163;SDS011;9714;51.208;4.242;2022-08-19T05:39:33;39.90;;;17.83;;
19163;SDS011;9714;51.208;4.242;2022-08-19T05:42:04;30.70;;;15.80;;
19163;SDS011;9714;51.208;4.242;2022-08-19T05:44:34;31.53;;;16.27;;
19163;SDS011;9714;51.208;4.242;2022-08-19T05:47:03;28.67;;;16.07;;
19163;SDS011;9714;51.208;4.242;2022-08-19T05:49:32;35.67;;;17.50;;
19163;SDS011;9714;51.208;4.242;2022-08-19T05:52:03;26.17;;;15.57;;
19163;SDS011;9714;51.208;4.242;2022-08-19T05:54:31;35.60;;;15.47;;
19163;SDS011;9714;51.208;4.242;2022-08-19T05:56:58;30.07;;;15.77;;
19163;SDS011;9714;51.208;4.242;2022-08-19T06:02:01;28.77;;;13.80;;
19163;SDS011;9714;51.208;4.242;2022-08-19T06:04:29;22.87;;;13.30;;
19163;SDS011;9714;51.208;4.242;2022-08-19T06:06:56;24.30;;;14.27;;
19163;SDS011;9714;51.208;4.242;2022-08-19T06:09:25;31.03;;;13.57;;
19163;SDS011;9714;51.208;4.242;2022-08-19T06:11:52;26.17;;;13.33;;
19163;SDS011;9714;51.208;4.242;2022-08-19T06:14:21;22.23;;;12.87;;
19163;SDS011;9714;51.208;4.242;2022-08-19T06:16:50;32.17;;;14.63;;
19163;SDS011;9714;51.208;4.242;2022-08-19T06:19:23;27.70;;;14.23;;
19163;SDS011;9714;51.208;4.242;2022-08-19T06:21:51;30.63;;;14.70;;
19163;SDS011;9714;51.208;4.242;2022-08-19T06:24:21;29.87;;;14.53;;
19163;SDS011;9714;51.208;4.242;2022-08-19T06:26:52;25.77;;;14.07;;
19163;SDS011;9714;51.208;4.242;2022-08-19T06:29:27;29.50;;;14.63;;
19163;SDS011;9714;51.208;4.242;2022-08-19T06:31:55;29.80;;;14.57;;
19163;SDS011;9714;51.208;4.242;2022-08-19T06:34:30;31.87;;;14.80;;
19163;SDS011;9714;51.208;4.242;2022-08-19T06:37:01;30.93;;;14.43;;
19163;SDS011;9714;51.208;4.242;2022-08-19T06:39:34;38.27;;;15.23;;
19163;SDS011;9714;51.208;4.242;2022-08-19T06:42:11;33.53;;;15.63;;
19163;SDS011;9714;51.208;4.242;2022-08-19T06:47:34;28.93;;;14.33;;
19163;SDS011;9714;51.208;4.242;2022-08-19T06:50:07;32.97;;;14.60;;
19163;SDS011;9714;51.208;4.242;2022-08-19T06:52:35;27.77;;;14.77;;
19163;SDS011;9714;51.208;4.242;2022-08-19T06:55:03;31.77;;;14.97;;
19163;SDS011;9714;51.208;4.242;2022-08-19T06:57:34;30.40;;;14.90;;
19163;SDS011;9714;51.208;4.242;2022-08-19T07:00:03;29.70;;;15.20;;
19163;SDS011;9714;51.208;4.242;2022-08-19T07:02:38;30.33;;;15.60;;
19163;SDS011;9714;51.208;4.242;2022-08-19T07:05:07;28.47;;;16.00;;
19163;SDS011;9714;51.208;4.242;2022-08-19T07:07:37;33.57;;;17.13;;
19163;SDS011;9714;51.208;4.242;2022-08-19T07:10:12;32.70;;;17.50;;
19163;SDS011;9714;51.208;4.242;2022-08-19T07:15:12;36.20;;;18.00;;
19163;SDS011;9714;51.208;4.242;2022-08-19T07:20:18;33.23;;;18.33;;
19163;SDS011;9714;51.208;4.242;2022-08-19T07:22:45;36.53;;;19.27;;
19163;SDS011;9714;51.208;4.242;2022-08-19T07:25:13;36.77;;;18.70;;
19163;SDS011;9714;51.208;4.242;2022-08-19T07:27:42;29.33;;;16.30;;
19163;SDS011;9714;51.208;4.242;2022-08-19T07:30:11;28.23;;;14.60;;
19163;SDS011;9714;51.208;4.242;2022-08-19T07:36:17;36.47;;;16.50;;
19163;SDS011;9714;51.208;4.242;2022-08-19T07:38:47;31.57;;;15.90;;
19163;SDS011;9714;51.208;4.242;2022-08-19T07:41:19;31.33;;;16.87;;
19163;SDS011;9714;51.208;4.242;2022-08-19T07:43:50;28.70;;;15.40;;
19163;SDS011;9714;51.208;4.242;2022-08-19T07:46:20;27.30;;;15.88;;
19163;SDS011;9714;51.208;4.242;2022-08-19T07:48:53;31.00;;;16.02;;
19163;SDS011;9714;51.208;4.242;2022-08-19T07:51:26;28.48;;;15.30;;
19163;SDS011;9714;51.208;4.242;2022-08-19T07:53:54;26.10;;;16.00;;
19163;SDS011;9714;51.208;4.242;2022-08-19T07:56:21;27.05;;;16.10;;
19163;SDS011;9714;51.208;4.242;2022-08-19T08:01:22;25.20;;;15.10;;
19163;SDS011;9714;51.208;4.242;2022-08-19T08:03:57;26.50;;;14.80;;
19163;SDS011;9714;51.208;4.242;2022-08-19T08:06:42;23.08;;;14.52;;
19163;SDS011;9714;51.208;4.242;2022-08-19T08:09:29;24.65;;;14.23;;
19163;SDS011;9714;51.208;4.242;2022-08-19T08:12:04;24.30;;;14.55;;
19163;SDS011;9714;51.208;4.242;2022-08-19T08:14:37;33.70;;;15.80;;
19163;SDS011;9714;51.208;4.242;2022-08-19T08:17:07;25.73;;;14.48;;
19163;SDS011;9714;51.208;4.242;2022-08-19T08:19:34;25.63;;;13.65;;
19163;SDS011;9714;51.208;4.242;2022-08-19T08:22:02;24.80;;;13.80;;
19163;SDS011;9714;51.208;4.242;2022-08-19T08:24:36;25.75;;;14.95;;
19163;SDS011;9714;51.208;4.242;2022-08-19T08:30:19;24.90;;;13.88;;
19163;SDS011;9714;51.208;4.242;2022-08-19T08:39:21;24.38;;;14.95;;
19163;SDS011;9714;51.208;4.242;2022-08-19T08:45:12;23.45;;;13.40;;
19163;SDS011;9714;51.208;4.242;2022-08-19T08:50:45;29.73;;;14.52;;
19163;SDS011;9714;51.208;4.242;2022-08-19T08:56:04;26.23;;;14.40;;
19163;SDS011;9714;51.208;4.242;2022-08-19T08:58:42;24.45;;;14.88;;
19163;SDS011;9714;51.208;4.242;2022-08-19T09:01:27;28.27;;;15.15;;
19163;SDS011;9714;51.208;4.242;2022-08-19T09:03:58;29.15;;;16.17;;
19163;SDS011;9714;51.208;4.242;2022-08-19T09:09:25;28.35;;;14.35;;
19163;SDS011;9714;51.208;4.242;2022-08-19T09:12:05;29.40;;;13.68;;
19163;SDS011;9714;51.208;4.242;2022-08-19T09:17:41;29.05;;;14.52;;
19163;SDS011;9714;51.208;4.242;2022-08-19T09:20:23;28.15;;;14.50;;
19163;SDS011;9714;51.208;4.242;2022-08-19T09:22:53;29.65;;;16.27;;
19163;SDS011;9714;51.208;4.242;2022-08-19T09:25:24;31.70;;;14.95;;
19163;SDS011;9714;51.208;4.242;2022-08-19T09:30:23;31.27;;;15.27;;
19163;SDS011;9714;51.208;4.242;2022-08-19T09:32:52;27.30;;;14.43;;
19163;SDS011;9714;51.208;4.242;2022-08-19T09:35:20;30.02;;;15.60;;
19163;SDS011;9714;51.208;4.242;2022-08-19T09:37:50;27.83;;;14.43;;
19163;SDS011;9714;51.208;4.242;2022-08-19T09:40:18;27.20;;;13.65;;
19163;SDS011;9714;51.208;4.242;2022-08-19T09:42:45;27.00;;;14.30;;
19163;SDS011;9714;51.208;4.242;2022-08-19T09:45:14;28.98;;;14.60;;
19163;SDS011;9714;51.208;4.242;2022-08-19T09:47:42;28.35;;;14.30;;
19163;SDS011;9714;51.208;4.242;2022-08-19T09:50:10;30.52;;;14.65;;
19163;SDS011;9714;51.208;4.242;2022-08-19T09:52:38;32.25;;;14.93;;
19163;SDS011;9714;51.208;4.242;2022-08-19T09:55:09;31.17;;;13.95;;
19163;SDS011;9714;51.208;4.242;2022-08-19T09:57:37;25.25;;;12.00;;
19163;SDS011;9714;51.208;4.242;2022-08-19T10:00:04;27.30;;;13.45;;
19163;SDS011;9714;51.208;4.242;2022-08-19T10:02:33;25.42;;;13.27;;
19163;SDS011;9714;51.208;4.242;2022-08-19T10:05:01;26.85;;;13.70;;
19163;SDS011;9714;51.208;4.242;2022-08-19T10:07:45;26.13;;;13.45;;
19163;SDS011;9714;51.208;4.242;2022-08-19T10:10:14;25.98;;;12.65;;
19163;SDS011;9714;51.208;4.242;2022-08-19T10:12:41;23.70;;;12.15;;
19163;SDS011;9714;51.208;4.242;2022-08-19T10:15:13;26.33;;;12.07;;
19163;SDS011;9714;51.208;4.242;2022-08-19T10:17:46;25.30;;;12.25;;
19163;SDS011;9714;51.208;4.242;2022-08-19T10:20:13;22.45;;;11.20;;
19163;SDS011;9714;51.208;4.242;2022-08-19T10:22:40;25.77;;;12.50;;
19163;SDS011;9714;51.208;4.242;2022-08-19T10:25:08;29.60;;;12.32;;
19163;SDS011;9714;51.208;4.242;2022-08-19T10:27:37;28.85;;;12.43;;
19163;SDS011;9714;51.208;4.242;2022-08-19T10:30:06;21.00;;;11.60;;
19163;SDS011;9714;51.208;4.242;2022-08-19T10:32:34;22.58;;;11.88;;
19163;SDS011;9714;51.208;4.242;2022-08-19T10:35:02;26.33;;;13.05;;
19163;SDS011;9714;51.208;4.242;2022-08-19T10:37:33;23.60;;;12.13;;
19163;SDS011;9714;51.208;4.242;2022-08-19T10:40:00;20.33;;;12.15;;
19163;SDS011;9714;51.208;4.242;2022-08-19T10:42:28;22.70;;;11.93;;
19163;SDS011;9714;51.208;4.242;2022-08-19T10:44:57;22.50;;;13.18;;
19163;SDS011;9714;51.208;4.242;2022-08-19T10:47:24;27.88;;;12.27;;
19163;SDS011;9714;51.208;4.242;2022-08-19T11:53:40;13.57;;;5.93;;
19163;SDS011;9714;51.208;4.242;2022-08-19T11:56:09;12.65;;;5.30;;
19163;SDS011;9714;51.208;4.242;2022-08-19T11:58:36;12.48;;;5.55;;
19163;SDS011;9714;51.208;4.242;2022-08-19T12:01:05;11.05;;;5.43;;
19163;SDS011;9714;51.208;4.242;2022-08-19T12:03:32;10.38;;;4.95;;
19163;SDS011;9714;51.208;4.242;2022-08-19T12:06:02;12.77;;;5.65;;
19163;SDS011;9714;51.208;4.242;2022-08-19T12:08:30;11.93;;;5.28;;
19163;SDS011;9714;51.208;4.242;2022-08-19T12:10:59;10.80;;;5.25;;
19163;SDS011;9714;51.208;4.242;2022-08-19T12:13:27;9.60;;;4.80;;
19163;SDS011;9714;51.208;4.242;2022-08-19T12:15:54;12.43;;;5.00;;
19163;SDS011;9714;51.208;4.242;2022-08-19T12:18:21;10.90;;;4.55;;
19163;SDS011;9714;51.208;4.242;2022-08-19T12:20:52;9.20;;;4.30;;
19163;SDS011;9714;51.208;4.242;2022-08-19T12:23:21;10.50;;;4.75;;
19163;SDS011;9714;51.208;4.242;2022-08-19T12:25:48;10.48;;;3.88;;
19163;SDS011;9714;51.208;4.242;2022-08-19T12:28:18;8.88;;;4.13;;
19163;SDS011;9714;51.208;4.242;2022-08-19T12:30:46;10.15;;;4.18;;
19163;SDS011;9714;51.208;4.242;2022-08-19T12:33:13;11.35;;;4.25;;
19163;SDS011;9714;51.208;4.242;2022-08-19T12:35:41;10.82;;;4.03;;
19163;SDS011;9714;51.208;4.242;2022-08-19T12:38:12;12.48;;;4.40;;
19163;SDS011;9714;51.208;4.242;2022-08-19T12:40:40;13.32;;;4.20;;
19163;SDS011;9714;51.208;4.242;2022-08-19T12:43:11;9.93;;;3.60;;
19163;SDS011;9714;51.208;4.242;2022-08-19T12:45:41;11.82;;;3.53;;
19163;SDS011;9714;51.208;4.242;2022-08-19T12:48:09;7.03;;;3.08;;
19163;SDS011;9714;51.208;4.242;2022-08-19T12:50:38;7.13;;;3.00;;
19163;SDS011;9714;51.208;4.242;2022-08-19T12:53:05;11.43;;;3.17;;
19163;SDS011;9714;51.208;4.242;2022-08-19T12:55:32;6.35;;;2.70;;
19163;SDS011;9714;51.208;4.242;2022-08-19T12:57:59;7.93;;;3.03;;
19163;SDS011;9714;51.208;4.242;2022-08-19T13:00:27;6.50;;;2.70;;
19163;SDS011;9714;51.208;4.242;2022-08-19T13:02:57;7.15;;;2.92;;
19163;SDS011;9714;51.208;4.242;2022-08-19T13:05:25;7.57;;;2.85;;
19163;SDS011;9714;51.208;4.242;2022-08-19T13:07:56;9.35;;;2.60;;
19163;SDS011;9714;51.208;4.242;2022-08-19T13:10:26;8.15;;;2.25;;
19163;SDS011;9714;51.208;4.242;2022-08-19T13:12:54;5.20;;;2.00;;
19163;SDS011;9714;51.208;4.242;2022-08-19T13:15:22;5.57;;;2.40;;
19163;SDS011;9714;51.208;4.242;2022-08-19T13:17:50;8.13;;;2.20;;
19163;SDS011;9714;51.208;4.242;2022-08-19T13:20:21;8.05;;;2.15;;
19163;SDS011;9714;51.208;4.242;2022-08-19T13:22:50;6.00;;;2.05;;
19163;SDS011;9714;51.208;4.242;2022-08-19T13:25:17;6.15;;;1.90;;
19163;SDS011;9714;51.208;4.242;2022-08-19T13:27:45;5.47;;;1.48;;
19163;SDS011;9714;51.208;4.242;2022-08-19T13:30:21;5.07;;;1.83;;
19163;SDS011;9714;51.208;4.242;2022-08-19T13:33:07;6.50;;;1.70;;
19163;SDS011;9714;51.208;4.242;2022-08-19T13:35:46;4.90;;;1.35;;
19163;SDS011;9714;51.208;4.242;2022-08-19T13:38:17;8.00;;;1.42;;
19163;SDS011;9714;51.208;4.242;2022-08-19T13:40:48;7.95;;;1.90;;
19163;SDS011;9714;51.208;4.242;2022-08-19T13:43:18;6.85;;;2.17;;
19163;SDS011;9714;51.208;4.242;2022-08-19T13:45:47;6.63;;;2.33;;
19163;SDS011;9714;51.208;4.242;2022-08-19T13:50:46;6.68;;;1.90;;
19163;SDS011;9714;51.208;4.242;2022-08-19T13:53:15;8.18;;;2.28;;
19163;SDS011;9714;51.208;4.242;2022-08-19T13:55:43;5.93;;;2.17;;
19163;SDS011;9714;51.208;4.242;2022-08-19T13:58:11;5.25;;;2.25;;
19163;SDS011;9714;51.208;4.242;2022-08-19T14:00:41;7.28;;;2.42;;
19163;SDS011;9714;51.208;4.242;2022-08-19T14:03:11;7.13;;;2.00;;
19163;SDS011;9714;51.208;4.242;2022-08-19T14:05:39;5.60;;;2.35;;
19163;SDS011;9714;51.208;4.242;2022-08-19T14:08:07;8.68;;;2.13;;
19163;SDS011;9714;51.208;4.242;2022-08-19T14:10:36;6.00;;;1.90;;
19163;SDS011;9714;51.208;4.242;2022-08-19T14:13:04;4.78;;;1.58;;
19163;SDS011;9714;51.208;4.242;2022-08-19T14:15:31;9.90;;;1.50;;
19163;SDS011;9714;51.208;4.242;2022-08-19T14:17:58;6.75;;;1.40;;
19163;SDS011;9714;51.208;4.242;2022-08-19T14:20:25;9.02;;;1.50;;
19163;SDS011;9714;51.208;4.242;2022-08-19T14:22:53;11.43;;;2.15;;
19163;SDS011;9714;51.208;4.242;2022-08-19T14:25:23;13.75;;;2.70;;
19163;SDS011;9714;51.208;4.242;2022-08-19T14:27:52;10.63;;;2.47;;
19163;SDS011;9714;51.208;4.242;2022-08-19T14:30:20;9.07;;;3.42;;
19163;SDS011;9714;51.208;4.242;2022-08-19T14:32:50;9.65;;;2.95;;
19163;SDS011;9714;51.208;4.242;2022-08-19T14:35:17;8.32;;;2.03;;
19163;SDS011;9714;51.208;4.242;2022-08-19T14:37:48;5.20;;;1.83;;
19163;SDS011;9714;51.208;4.242;2022-08-19T14:40:18;8.85;;;2.28;;
19163;SDS011;9714;51.208;4.242;2022-08-19T14:42:47;6.47;;;1.45;;
19163;SDS011;9714;51.208;4.242;2022-08-19T14:45:15;7.15;;;1.70;;
19163;SDS011;9714;51.208;4.242;2022-08-19T14:47:43;5.60;;;1.60;;
19163;SDS011;9714;51.208;4.242;2022-08-19T14:50:11;7.22;;;1.80;;
19163;SDS011;9714;51.208;4.242;2022-08-19T14:52:38;7.18;;;1.85;;
19163;SDS011;9714;51.208;4.242;2022-08-19T14:55:06;9.75;;;2.55;;
19163;SDS011;9714;51.208;4.242;2022-08-19T14:57:33;7.90;;;4.10;;
19163;SDS011;9714;51.208;4.242;2022-08-19T15:00:03;10.98;;;5.70;;
19163;SDS011;9714;51.208;4.242;2022-08-19T15:02:31;12.65;;;5.80;;
19163;SDS011;9714;51.208;4.242;2022-08-19T15:04:58;17.33;;;8.88;;
19163;SDS011;9714;51.208;4.242;2022-08-19T15:07:25;14.10;;;8.60;;
19163;SDS011;9714;51.208;4.242;2022-08-19T15:09:53;12.90;;;6.80;;
19163;SDS011;9714;51.208;4.242;2022-08-19T15:12:20;10.45;;;4.50;;
19163;SDS011;9714;51.208;4.242;2022-08-19T15:14:49;12.80;;;4.50;;
19163;SDS011;9714;51.208;4.242;2022-08-19T15:17:18;10.57;;;5.13;;
19163;SDS011;9714;51.208;4.242;2022-08-19T15:19:45;11.13;;;5.30;;
19163;SDS011;9714;51.208;4.242;2022-08-19T15:22:12;15.75;;;5.85;;
19163;SDS011;9714;51.208;4.242;2022-08-19T15:24:40;12.38;;;5.43;;
19163;SDS011;9714;51.208;4.242;2022-08-19T15:27:10;12.10;;;5.15;;
19163;SDS011;9714;51.208;4.242;2022-08-19T15:29:37;11.50;;;5.40;;
19163;SDS011;9714;51.208;4.242;2022-08-19T15:32:05;10.65;;;5.68;;
19163;SDS011;9714;51.208;4.242;2022-08-19T15:34:34;11.68;;;6.18;;
19163;SDS011;9714;51.208;4.242;2022-08-19T15:37:01;12.65;;;4.93;;
19163;SDS011;9714;51.208;4.242;2022-08-19T15:39:30;9.52;;;4.35;;
19163;SDS011;9714;51.208;4.242;2022-08-19T15:41:57;10.15;;;3.47;;
19163;SDS011;9714;51.208;4.242;2022-08-19T15:44:25;11.50;;;3.50;;
19163;SDS011;9714;51.208;4.242;2022-08-19T15:46:53;7.78;;;2.85;;
19163;SDS011;9714;51.208;4.242;2022-08-19T15:49:21;11.60;;;2.70;;
19163;SDS011;9714;51.208;4.242;2022-08-19T15:51:51;6.90;;;2.78;;
19163;SDS011;9714;51.208;4.242;2022-08-19T15:54:20;7.45;;;2.75;;
19163;SDS011;9714;51.208;4.242;2022-08-19T15:56:47;8.60;;;2.90;;
19163;SDS011;9714;51.208;4.242;2022-08-19T15:59:36;8.18;;;2.83;;
19163;SDS011;9714;51.208;4.242;2022-08-19T16:02:23;9.15;;;3.33;;
19163;SDS011;9714;51.208;4.242;2022-08-19T16:05:10;7.63;;;3.15;;
19163;SDS011;9714;51.208;4.242;2022-08-19T16:07:58;11.63;;;3.45;;
19163;SDS011;9714;51.208;4.242;2022-08-19T16:10:25;10.30;;;3.75;;
19163;SDS011;9714;51.208;4.242;2022-08-19T16:12:52;9.25;;;3.38;;
19163;SDS011;9714;51.208;4.242;2022-08-19T16:15:19;8.82;;;3.17;;
19163;SDS011;9714;51.208;4.242;2022-08-19T16:17:46;9.75;;;3.35;;
19163;SDS011;9714;51.208;4.242;2022-08-19T16:20:14;12.82;;;4.30;;
19163;SDS011;9714;51.208;4.242;2022-08-19T16:22:41;12.75;;;4.35;;
19163;SDS011;9714;51.208;4.242;2022-08-19T16:25:10;11.38;;;4.30;;
19163;SDS011;9714;51.208;4.242;2022-08-19T16:27:37;12.02;;;4.32;;
19163;SDS011;9714;51.208;4.242;2022-08-19T16:30:05;10.38;;;4.00;;
19163;SDS011;9714;51.208;4.242;2022-08-19T16:32:33;12.02;;;4.85;;
19163;SDS011;9714;51.208;4.242;2022-08-19T16:35:02;10.02;;;4.15;;
19163;SDS011;9714;51.208;4.242;2022-08-19T16:37:30;16.83;;;5.30;;
19163;SDS011;9714;51.208;4.242;2022-08-19T16:39:57;11.20;;;4.45;;
19163;SDS011;9714;51.208;4.242;2022-08-19T16:42:26;11.88;;;4.60;;
19163;SDS011;9714;51.208;4.242;2022-08-19T16:44:53;9.68;;;4.57;;